sensor_id;sensor_type;location;lat;lon;timestamp;P1;durP1;ratioP1;P2;durP2;ratioP2
37065;SDS011;22981;43.080;25.550;2022-12-07T00:00:33;18.65;;;13.30;;
37065;SDS011;22981;43.080;25.550;2022-12-07T00:03:08;30.10;;;17.65;;
37065;SDS011;22981;43.080;25.550;2022-12-07T00:05:41;30.23;;;18.67;;
37065;SDS011;22981;43.080;25.550;2022-12-07T00:08:13;28.05;;;18.73;;
37065;SDS011;22981;43.080;25.550;2022-12-07T00:10:45;27.60;;;16.87;;
37065;SDS011;22981;43.080;25.550;2022-12-07T00:13:17;26.93;;;17.57;;
37065;SDS011;22981;43.080;25.550;2022-12-07T00:15:49;22.85;;;16.67;;
37065;SDS011;22981;43.080;25.550;2022-12-07T00:18:20;25.25;;;16.50;;
37065;SDS011;22981;43.080;25.550;2022-12-07T00:20:51;25.27;;;16.65;;
37065;SDS011;22981;43.080;25.550;2022-12-07T00:23:27;22.73;;;15.95;;
37065;SDS011;22981;43.080;25.550;2022-12-07T00:26:19;26.80;;;16.57;;
37065;SDS011;22981;43.080;25.550;2022-12-07T00:29:01;27.17;;;16.55;;
37065;SDS011;22981;43.080;25.550;2022-12-07T00:31:35;26.02;;;16.40;;
37065;SDS011;22981;43.080;25.550;2022-12-07T00:34:06;18.42;;;12.33;;
37065;SDS011;22981;43.080;25.550;2022-12-07T00:36:35;24.70;;;17.23;;
37065;SDS011;22981;43.080;25.550;2022-12-07T00:39:05;29.02;;;18.30;;
37065;SDS011;22981;43.080;25.550;2022-12-07T00:41:35;31.50;;;20.50;;
37065;SDS011;22981;43.080;25.550;2022-12-07T00:44:02;26.73;;;18.50;;
37065;SDS011;22981;43.080;25.550;2022-12-07T00:46:31;29.07;;;18.40;;
37065;SDS011;22981;43.080;25.550;2022-12-07T00:48:59;28.70;;;19.60;;
37065;SDS011;22981;43.080;25.550;2022-12-07T00:51:29;30.15;;;20.75;;
37065;SDS011;22981;43.080;25.550;2022-12-07T00:53:58;35.30;;;25.17;;
37065;SDS011;22981;43.080;25.550;2022-12-07T00:56:27;31.48;;;22.17;;
37065;SDS011;22981;43.080;25.550;2022-12-07T00:58:59;33.02;;;21.07;;
37065;SDS011;22981;43.080;25.550;2022-12-07T01:01:29;31.33;;;21.37;;
37065;SDS011;22981;43.080;25.550;2022-12-07T01:03:58;34.80;;;21.33;;
37065;SDS011;22981;43.080;25.550;2022-12-07T01:06:28;35.55;;;20.85;;
37065;SDS011;22981;43.080;25.550;2022-12-07T01:08:57;30.43;;;20.80;;
37065;SDS011;22981;43.080;25.550;2022-12-07T01:11:25;38.30;;;23.50;;
37065;SDS011;22981;43.080;25.550;2022-12-07T01:13:55;36.90;;;21.85;;
37065;SDS011;22981;43.080;25.550;2022-12-07T01:16:25;37.55;;;22.30;;
37065;SDS011;22981;43.080;25.550;2022-12-07T01:19:02;38.90;;;22.50;;
37065;SDS011;22981;43.080;25.550;2022-12-07T01:21:42;35.37;;;20.57;;
37065;SDS011;22981;43.080;25.550;2022-12-07T01:24:14;35.70;;;21.33;;
37065;SDS011;22981;43.080;25.550;2022-12-07T01:26:49;34.55;;;20.55;;
37065;SDS011;22981;43.080;25.550;2022-12-07T01:29:22;34.95;;;21.27;;
37065;SDS011;22981;43.080;25.550;2022-12-07T01:31:50;34.58;;;19.90;;
37065;SDS011;22981;43.080;25.550;2022-12-07T01:34:22;36.15;;;20.20;;
37065;SDS011;22981;43.080;25.550;2022-12-07T01:36:53;35.38;;;20.57;;
37065;SDS011;22981;43.080;25.550;2022-12-07T01:39:23;32.15;;;20.85;;
37065;SDS011;22981;43.080;25.550;2022-12-07T01:41:51;35.30;;;20.17;;
37065;SDS011;22981;43.080;25.550;2022-12-07T01:44:19;33.35;;;19.20;;
37065;SDS011;22981;43.080;25.550;2022-12-07T01:46:57;37.80;;;19.98;;
37065;SDS011;22981;43.080;25.550;2022-12-07T01:54:39;34.27;;;19.20;;
37065;SDS011;22981;43.080;25.550;2022-12-07T01:57:08;36.53;;;19.12;;
37065;SDS011;22981;43.080;25.550;2022-12-07T01:59:36;34.98;;;19.23;;
37065;SDS011;22981;43.080;25.550;2022-12-07T02:02:06;38.88;;;19.15;;
37065;SDS011;22981;43.080;25.550;2022-12-07T02:04:35;33.00;;;17.85;;
37065;SDS011;22981;43.080;25.550;2022-12-07T02:07:05;32.38;;;18.52;;
37065;SDS011;22981;43.080;25.550;2022-12-07T02:09:32;30.97;;;17.80;;
37065;SDS011;22981;43.080;25.550;2022-12-07T02:12:00;32.95;;;17.25;;
37065;SDS011;22981;43.080;25.550;2022-12-07T02:14:28;26.30;;;16.35;;
37065;SDS011;22981;43.080;25.550;2022-12-07T02:17:13;28.80;;;17.70;;
37065;SDS011;22981;43.080;25.550;2022-12-07T02:19:53;26.82;;;17.10;;
37065;SDS011;22981;43.080;25.550;2022-12-07T02:28:34;26.45;;;17.20;;
37065;SDS011;22981;43.080;25.550;2022-12-07T02:31:20;28.15;;;18.02;;
37065;SDS011;22981;43.080;25.550;2022-12-07T02:33:52;25.25;;;16.48;;
37065;SDS011;22981;43.080;25.550;2022-12-07T02:36:26;25.27;;;15.32;;
37065;SDS011;22981;43.080;25.550;2022-12-07T02:41:26;24.72;;;16.00;;
37065;SDS011;22981;43.080;25.550;2022-12-07T02:43:55;23.18;;;16.27;;
37065;SDS011;22981;43.080;25.550;2022-12-07T02:46:26;23.45;;;15.88;;
37065;SDS011;22981;43.080;25.550;2022-12-07T02:48:58;23.85;;;15.75;;
37065;SDS011;22981;43.080;25.550;2022-12-07T02:51:29;26.37;;;16.32;;
37065;SDS011;22981;43.080;25.550;2022-12-07T02:53:57;25.85;;;17.00;;
37065;SDS011;22981;43.080;25.550;2022-12-07T02:56:33;28.52;;;16.77;;
37065;SDS011;22981;43.080;25.550;2022-12-07T03:05:15;28.52;;;16.85;;
37065;SDS011;22981;43.080;25.550;2022-12-07T03:11:09;34.38;;;18.37;;
37065;SDS011;22981;43.080;25.550;2022-12-07T03:13:41;33.05;;;18.95;;
37065;SDS011;22981;43.080;25.550;2022-12-07T03:16:43;31.40;;;17.77;;
37065;SDS011;22981;43.080;25.550;2022-12-07T03:19:13;29.82;;;19.27;;
37065;SDS011;22981;43.080;25.550;2022-12-07T03:21:44;33.15;;;18.20;;
37065;SDS011;22981;43.080;25.550;2022-12-07T03:24:17;29.10;;;16.95;;
37065;SDS011;22981;43.080;25.550;2022-12-07T03:26:51;32.90;;;17.73;;
37065;SDS011;22981;43.080;25.550;2022-12-07T03:29:22;36.08;;;19.05;;
37065;SDS011;22981;43.080;25.550;2022-12-07T03:31:58;33.13;;;18.42;;
37065;SDS011;22981;43.080;25.550;2022-12-07T03:34:25;30.75;;;18.12;;
37065;SDS011;22981;43.080;25.550;2022-12-07T03:39:41;34.38;;;17.67;;
37065;SDS011;22981;43.080;25.550;2022-12-07T03:42:15;34.30;;;19.00;;
37065;SDS011;22981;43.080;25.550;2022-12-07T03:44:43;31.93;;;17.70;;
37065;SDS011;22981;43.080;25.550;2022-12-07T03:47:16;33.67;;;18.77;;
37065;SDS011;22981;43.080;25.550;2022-12-07T03:49:55;35.10;;;19.92;;
37065;SDS011;22981;43.080;25.550;2022-12-07T03:52:39;45.00;;;21.48;;
37065;SDS011;22981;43.080;25.550;2022-12-07T03:57:43;34.67;;;18.05;;
37065;SDS011;22981;43.080;25.550;2022-12-07T04:00:13;34.40;;;17.42;;
37065;SDS011;22981;43.080;25.550;2022-12-07T04:02:41;33.85;;;17.77;;
37065;SDS011;22981;43.080;25.550;2022-12-07T04:05:10;31.62;;;18.48;;
37065;SDS011;22981;43.080;25.550;2022-12-07T04:07:38;32.65;;;17.92;;
37065;SDS011;22981;43.080;25.550;2022-12-07T04:10:07;34.03;;;18.77;;
37065;SDS011;22981;43.080;25.550;2022-12-07T04:12:34;33.45;;;19.77;;
37065;SDS011;22981;43.080;25.550;2022-12-07T04:15:03;35.90;;;19.23;;
37065;SDS011;22981;43.080;25.550;2022-12-07T04:17:31;35.00;;;20.50;;
37065;SDS011;22981;43.080;25.550;2022-12-07T04:19:58;35.83;;;19.42;;
37065;SDS011;22981;43.080;25.550;2022-12-07T04:22:26;32.73;;;18.50;;
37065;SDS011;22981;43.080;25.550;2022-12-07T04:24:54;34.48;;;18.77;;
37065;SDS011;22981;43.080;25.550;2022-12-07T04:27:21;36.83;;;18.60;;
37065;SDS011;22981;43.080;25.550;2022-12-07T04:29:49;28.80;;;17.95;;
37065;SDS011;22981;43.080;25.550;2022-12-07T04:32:16;32.78;;;17.67;;
37065;SDS011;22981;43.080;25.550;2022-12-07T04:34:44;29.10;;;17.87;;
37065;SDS011;22981;43.080;25.550;2022-12-07T04:37:11;32.55;;;18.25;;
37065;SDS011;22981;43.080;25.550;2022-12-07T04:39:39;31.35;;;18.45;;
37065;SDS011;22981;43.080;25.550;2022-12-07T04:42:07;30.70;;;17.40;;
37065;SDS011;22981;43.080;25.550;2022-12-07T04:44:34;28.30;;;16.87;;
37065;SDS011;22981;43.080;25.550;2022-12-07T04:47:02;32.73;;;17.12;;
37065;SDS011;22981;43.080;25.550;2022-12-07T04:49:30;33.90;;;18.77;;
37065;SDS011;22981;43.080;25.550;2022-12-07T04:51:57;31.12;;;19.07;;
37065;SDS011;22981;43.080;25.550;2022-12-07T04:54:25;30.52;;;18.10;;
37065;SDS011;22981;43.080;25.550;2022-12-07T04:56:52;26.17;;;16.60;;
37065;SDS011;22981;43.080;25.550;2022-12-07T04:59:20;31.85;;;17.50;;
37065;SDS011;22981;43.080;25.550;2022-12-07T05:01:47;31.12;;;18.80;;
37065;SDS011;22981;43.080;25.550;2022-12-07T05:04:15;36.58;;;23.18;;
37065;SDS011;22981;43.080;25.550;2022-12-07T05:06:43;31.12;;;19.73;;
37065;SDS011;22981;43.080;25.550;2022-12-07T05:09:11;33.75;;;20.88;;
37065;SDS011;22981;43.080;25.550;2022-12-07T05:11:38;36.77;;;21.45;;
37065;SDS011;22981;43.080;25.550;2022-12-07T05:14:14;32.08;;;19.32;;
37065;SDS011;22981;43.080;25.550;2022-12-07T05:16:43;30.37;;;19.42;;
37065;SDS011;22981;43.080;25.550;2022-12-07T05:19:12;28.00;;;18.77;;
37065;SDS011;22981;43.080;25.550;2022-12-07T05:21:40;27.27;;;17.73;;
37065;SDS011;22981;43.080;25.550;2022-12-07T05:24:08;29.18;;;18.60;;
37065;SDS011;22981;43.080;25.550;2022-12-07T05:26:38;35.00;;;18.73;;
37065;SDS011;22981;43.080;25.550;2022-12-07T05:29:06;33.45;;;20.12;;
37065;SDS011;22981;43.080;25.550;2022-12-07T05:31:34;30.52;;;19.32;;
37065;SDS011;22981;43.080;25.550;2022-12-07T05:34:01;27.98;;;18.65;;
37065;SDS011;22981;43.080;25.550;2022-12-07T05:36:29;30.70;;;19.65;;
37065;SDS011;22981;43.080;25.550;2022-12-07T05:38:57;34.08;;;20.75;;
37065;SDS011;22981;43.080;25.550;2022-12-07T05:41:25;32.10;;;21.37;;
37065;SDS011;22981;43.080;25.550;2022-12-07T05:44:10;37.38;;;23.27;;
37065;SDS011;22981;43.080;25.550;2022-12-07T05:46:38;34.65;;;23.18;;
37065;SDS011;22981;43.080;25.550;2022-12-07T05:49:05;37.25;;;22.35;;
37065;SDS011;22981;43.080;25.550;2022-12-07T05:51:33;31.82;;;21.35;;
37065;SDS011;22981;43.080;25.550;2022-12-07T05:54:00;33.80;;;22.05;;
37065;SDS011;22981;43.080;25.550;2022-12-07T05:56:28;34.48;;;21.93;;
37065;SDS011;22981;43.080;25.550;2022-12-07T05:58:56;28.87;;;18.80;;
37065;SDS011;22981;43.080;25.550;2022-12-07T06:01:41;29.52;;;19.02;;
37065;SDS011;22981;43.080;25.550;2022-12-07T06:04:09;25.60;;;17.80;;
37065;SDS011;22981;43.080;25.550;2022-12-07T06:06:37;30.12;;;17.67;;
37065;SDS011;22981;43.080;25.550;2022-12-07T06:09:04;30.43;;;17.67;;
37065;SDS011;22981;43.080;25.550;2022-12-07T06:11:32;22.50;;;16.10;;
37065;SDS011;22981;43.080;25.550;2022-12-07T06:14:18;27.30;;;17.52;;
37065;SDS011;22981;43.080;25.550;2022-12-07T06:16:46;25.65;;;17.60;;
37065;SDS011;22981;43.080;25.550;2022-12-07T06:19:13;25.12;;;17.55;;
37065;SDS011;22981;43.080;25.550;2022-12-07T06:21:41;29.63;;;17.82;;
37065;SDS011;22981;43.080;25.550;2022-12-07T06:24:10;30.45;;;19.98;;
37065;SDS011;22981;43.080;25.550;2022-12-07T06:26:39;36.50;;;21.82;;
37065;SDS011;22981;43.080;25.550;2022-12-07T06:29:08;32.98;;;21.60;;
37065;SDS011;22981;43.080;25.550;2022-12-07T06:31:36;26.50;;;17.02;;
37065;SDS011;22981;43.080;25.550;2022-12-07T06:34:06;40.98;;;25.40;;
37065;SDS011;22981;43.080;25.550;2022-12-07T06:36:35;43.52;;;28.83;;
37065;SDS011;22981;43.080;25.550;2022-12-07T06:39:03;38.33;;;22.52;;
37065;SDS011;22981;43.080;25.550;2022-12-07T06:41:31;32.95;;;21.30;;
37065;SDS011;22981;43.080;25.550;2022-12-07T06:43:59;57.17;;;36.53;;
37065;SDS011;22981;43.080;25.550;2022-12-07T06:46:26;49.03;;;30.75;;
37065;SDS011;22981;43.080;25.550;2022-12-07T06:48:54;38.70;;;27.35;;
37065;SDS011;22981;43.080;25.550;2022-12-07T06:51:22;31.65;;;19.62;;
37065;SDS011;22981;43.080;25.550;2022-12-07T06:53:49;30.02;;;18.45;;
37065;SDS011;22981;43.080;25.550;2022-12-07T06:56:17;25.05;;;17.30;;
37065;SDS011;22981;43.080;25.550;2022-12-07T06:58:44;24.40;;;17.02;;
37065;SDS011;22981;43.080;25.550;2022-12-07T07:01:13;26.82;;;18.00;;
37065;SDS011;22981;43.080;25.550;2022-12-07T07:03:42;31.42;;;18.30;;
37065;SDS011;22981;43.080;25.550;2022-12-07T07:06:11;27.20;;;16.67;;
37065;SDS011;22981;43.080;25.550;2022-12-07T07:08:39;27.10;;;16.87;;
37065;SDS011;22981;43.080;25.550;2022-12-07T07:11:07;30.88;;;18.77;;
37065;SDS011;22981;43.080;25.550;2022-12-07T07:13:36;29.05;;;18.10;;
37065;SDS011;22981;43.080;25.550;2022-12-07T07:16:03;30.68;;;16.95;;
37065;SDS011;22981;43.080;25.550;2022-12-07T07:18:32;25.57;;;17.25;;
37065;SDS011;22981;43.080;25.550;2022-12-07T07:21:00;30.90;;;20.48;;
37065;SDS011;22981;43.080;25.550;2022-12-07T07:23:27;40.12;;;24.60;;
37065;SDS011;22981;43.080;25.550;2022-12-07T07:25:55;46.80;;;25.35;;
37065;SDS011;22981;43.080;25.550;2022-12-07T07:28:23;46.25;;;27.25;;
37065;SDS011;22981;43.080;25.550;2022-12-07T07:30:51;41.58;;;27.10;;
37065;SDS011;22981;43.080;25.550;2022-12-07T07:33:18;48.35;;;26.97;;
37065;SDS011;22981;43.080;25.550;2022-12-07T07:35:46;44.55;;;28.00;;
37065;SDS011;22981;43.080;25.550;2022-12-07T07:38:13;43.20;;;28.50;;
37065;SDS011;22981;43.080;25.550;2022-12-07T07:40:41;46.00;;;27.75;;
37065;SDS011;22981;43.080;25.550;2022-12-07T07:43:08;41.88;;;26.00;;
37065;SDS011;22981;43.080;25.550;2022-12-07T07:45:36;42.05;;;28.45;;
37065;SDS011;22981;43.080;25.550;2022-12-07T07:48:04;40.83;;;27.15;;
37065;SDS011;22981;43.080;25.550;2022-12-07T07:50:31;43.45;;;28.17;;
37065;SDS011;22981;43.080;25.550;2022-12-07T07:52:59;35.98;;;25.08;;
37065;SDS011;22981;43.080;25.550;2022-12-07T07:55:26;43.33;;;28.12;;
37065;SDS011;22981;43.080;25.550;2022-12-07T07:57:54;39.78;;;25.50;;
37065;SDS011;22981;43.080;25.550;2022-12-07T08:00:22;40.98;;;26.40;;
37065;SDS011;22981;43.080;25.550;2022-12-07T08:02:49;40.75;;;26.40;;
37065;SDS011;22981;43.080;25.550;2022-12-07T08:05:17;40.95;;;26.05;;
37065;SDS011;22981;43.080;25.550;2022-12-07T08:07:45;35.75;;;23.35;;
37065;SDS011;22981;43.080;25.550;2022-12-07T08:10:12;34.60;;;24.12;;
37065;SDS011;22981;43.080;25.550;2022-12-07T08:12:41;33.13;;;23.15;;
37065;SDS011;22981;43.080;25.550;2022-12-07T08:15:28;34.43;;;24.02;;
37065;SDS011;22981;43.080;25.550;2022-12-07T08:17:57;30.97;;;21.45;;
37065;SDS011;22981;43.080;25.550;2022-12-07T08:20:25;31.25;;;21.95;;
37065;SDS011;22981;43.080;25.550;2022-12-07T08:22:52;32.78;;;23.27;;
37065;SDS011;22981;43.080;25.550;2022-12-07T08:25:20;29.12;;;20.45;;
37065;SDS011;22981;43.080;25.550;2022-12-07T08:27:48;24.40;;;17.48;;
37065;SDS011;22981;43.080;25.550;2022-12-07T08:30:16;21.73;;;16.30;;
37065;SDS011;22981;43.080;25.550;2022-12-07T08:32:45;22.02;;;16.32;;
37065;SDS011;22981;43.080;25.550;2022-12-07T08:35:13;21.77;;;15.75;;
37065;SDS011;22981;43.080;25.550;2022-12-07T08:37:42;23.60;;;18.10;;
37065;SDS011;22981;43.080;25.550;2022-12-07T08:40:10;20.75;;;16.25;;
37065;SDS011;22981;43.080;25.550;2022-12-07T08:42:43;43.42;;;34.45;;
37065;SDS011;22981;43.080;25.550;2022-12-07T08:45:13;67.55;;;49.05;;
37065;SDS011;22981;43.080;25.550;2022-12-07T08:47:49;47.90;;;37.03;;
37065;SDS011;22981;43.080;25.550;2022-12-07T08:50:27;39.63;;;29.98;;
37065;SDS011;22981;43.080;25.550;2022-12-07T08:52:59;34.60;;;27.67;;
37065;SDS011;22981;43.080;25.550;2022-12-07T08:55:33;31.48;;;23.52;;
37065;SDS011;22981;43.080;25.550;2022-12-07T08:58:05;25.77;;;21.85;;
37065;SDS011;22981;43.080;25.550;2022-12-07T09:00:38;24.30;;;20.15;;
37065;SDS011;22981;43.080;25.550;2022-12-07T09:03:09;30.20;;;22.73;;
37065;SDS011;22981;43.080;25.550;2022-12-07T09:05:44;28.83;;;21.00;;
37065;SDS011;22981;43.080;25.550;2022-12-07T09:08:16;24.92;;;20.05;;
37065;SDS011;22981;43.080;25.550;2022-12-07T09:10:47;26.85;;;21.27;;
37065;SDS011;22981;43.080;25.550;2022-12-07T09:13:16;23.52;;;20.00;;
37065;SDS011;22981;43.080;25.550;2022-12-07T09:15:52;27.48;;;21.52;;
37065;SDS011;22981;43.080;25.550;2022-12-07T09:18:40;25.12;;;20.75;;
37065;SDS011;22981;43.080;25.550;2022-12-07T09:53:09;27.35;;;21.52;;
37065;SDS011;22981;43.080;25.550;2022-12-07T09:55:38;27.20;;;21.48;;
37065;SDS011;22981;43.080;25.550;2022-12-07T09:58:27;31.10;;;21.82;;
37065;SDS011;22981;43.080;25.550;2022-12-07T10:01:09;28.30;;;21.95;;
37065;SDS011;22981;43.080;25.550;2022-12-07T10:03:26;28.20;;;22.25;;
37065;SDS011;22981;43.080;25.550;2022-12-07T10:05:54;31.42;;;23.35;;
37065;SDS011;22981;43.080;25.550;2022-12-07T10:08:24;32.08;;;23.32;;
37065;SDS011;22981;43.080;25.550;2022-12-07T10:10:52;33.78;;;23.95;;
37065;SDS011;22981;43.080;25.550;2022-12-07T10:16:02;31.20;;;23.85;;
37065;SDS011;22981;43.080;25.550;2022-12-07T10:18:36;28.95;;;22.00;;
37065;SDS011;22981;43.080;25.550;2022-12-07T10:24:02;33.55;;;23.67;;
37065;SDS011;22981;43.080;25.550;2022-12-07T10:29:31;33.25;;;26.05;;
37065;SDS011;22981;43.080;25.550;2022-12-07T10:32:04;33.10;;;24.12;;
37065;SDS011;22981;43.080;25.550;2022-12-07T10:34:35;30.08;;;22.65;;
37065;SDS011;22981;43.080;25.550;2022-12-07T10:39:44;29.10;;;22.05;;
37065;SDS011;22981;43.080;25.550;2022-12-07T10:42:18;30.17;;;23.07;;
37065;SDS011;22981;43.080;25.550;2022-12-07T10:44:49;27.85;;;21.35;;
37065;SDS011;22981;43.080;25.550;2022-12-07T10:47:39;29.30;;;20.97;;
37065;SDS011;22981;43.080;25.550;2022-12-07T10:53:31;28.30;;;20.25;;
37065;SDS011;22981;43.080;25.550;2022-12-07T10:56:08;30.97;;;21.30;;
37065;SDS011;22981;43.080;25.550;2022-12-07T11:01:41;26.48;;;19.82;;
37065;SDS011;22981;43.080;25.550;2022-12-07T11:07:11;29.32;;;20.35;;
37065;SDS011;22981;43.080;25.550;2022-12-07T11:12:40;86.42;;;53.13;;
37065;SDS011;22981;43.080;25.550;2022-12-07T11:15:19;28.95;;;22.40;;
37065;SDS011;22981;43.080;25.550;2022-12-07T11:18:06;26.35;;;21.07;;
37065;SDS011;22981;43.080;25.550;2022-12-07T11:21:03;29.27;;;21.25;;
37065;SDS011;22981;43.080;25.550;2022-12-07T11:26:34;30.70;;;22.00;;
37065;SDS011;22981;43.080;25.550;2022-12-07T11:29:21;28.60;;;21.35;;
37065;SDS011;22981;43.080;25.550;2022-12-07T11:37:00;28.50;;;20.77;;
37065;SDS011;22981;43.080;25.550;2022-12-07T11:39:33;31.37;;;23.22;;
37065;SDS011;22981;43.080;25.550;2022-12-07T11:42:09;32.70;;;24.15;;
37065;SDS011;22981;43.080;25.550;2022-12-07T11:44:47;28.25;;;23.85;;
37065;SDS011;22981;43.080;25.550;2022-12-07T11:47:16;28.98;;;23.80;;
37065;SDS011;22981;43.080;25.550;2022-12-07T11:50:13;31.30;;;24.35;;
37065;SDS011;22981;43.080;25.550;2022-12-07T11:52:43;30.43;;;23.75;;
37065;SDS011;22981;43.080;25.550;2022-12-07T11:55:39;33.15;;;24.07;;
37065;SDS011;22981;43.080;25.550;2022-12-07T11:58:12;33.75;;;23.83;;
37065;SDS011;22981;43.080;25.550;2022-12-07T12:00:30;34.18;;;23.20;;
37065;SDS011;22981;43.080;25.550;2022-12-07T12:03:04;26.82;;;22.20;;
37065;SDS011;22981;43.080;25.550;2022-12-07T12:05:38;27.30;;;21.27;;
37065;SDS011;22981;43.080;25.550;2022-12-07T12:08:13;32.15;;;23.47;;
37065;SDS011;22981;43.080;25.550;2022-12-07T12:22:18;34.83;;;25.48;;
37065;SDS011;22981;43.080;25.550;2022-12-07T12:24:49;36.58;;;27.17;;
37065;SDS011;22981;43.080;25.550;2022-12-07T12:27:30;34.13;;;25.48;;
37065;SDS011;22981;43.080;25.550;2022-12-07T12:29:56;33.40;;;27.27;;
37065;SDS011;22981;43.080;25.550;2022-12-07T12:35:28;42.40;;;28.67;;
37065;SDS011;22981;43.080;25.550;2022-12-07T12:40:44;37.40;;;27.90;;
37065;SDS011;22981;43.080;25.550;2022-12-07T12:51:49;31.87;;;24.70;;
37065;SDS011;22981;43.080;25.550;2022-12-07T12:54:19;32.20;;;23.55;;
37065;SDS011;22981;43.080;25.550;2022-12-07T13:02:39;34.45;;;25.23;;
37065;SDS011;22981;43.080;25.550;2022-12-07T13:05:25;31.05;;;24.37;;
37065;SDS011;22981;43.080;25.550;2022-12-07T13:08:02;34.67;;;23.07;;
37065;SDS011;22981;43.080;25.550;2022-12-07T13:15:46;27.45;;;19.25;;
37065;SDS011;22981;43.080;25.550;2022-12-07T13:26:19;19.82;;;14.45;;
37065;SDS011;22981;43.080;25.550;2022-12-07T13:31:49;19.57;;;13.85;;
37065;SDS011;22981;43.080;25.550;2022-12-07T14:28:51;51.65;;;38.55;;
37065;SDS011;22981;43.080;25.550;2022-12-07T14:31:21;45.75;;;34.58;;
37065;SDS011;22981;43.080;25.550;2022-12-07T14:33:54;41.68;;;32.55;;
37065;SDS011;22981;43.080;25.550;2022-12-07T14:36:30;40.85;;;30.95;;
37065;SDS011;22981;43.080;25.550;2022-12-07T14:38:58;38.53;;;28.92;;
37065;SDS011;22981;43.080;25.550;2022-12-07T14:41:32;49.63;;;35.58;;
37065;SDS011;22981;43.080;25.550;2022-12-07T14:44:21;46.80;;;35.50;;
37065;SDS011;22981;43.080;25.550;2022-12-07T14:46:49;46.63;;;34.05;;
37065;SDS011;22981;43.080;25.550;2022-12-07T14:49:18;47.58;;;32.53;;
37065;SDS011;22981;43.080;25.550;2022-12-07T14:51:46;45.35;;;32.45;;
37065;SDS011;22981;43.080;25.550;2022-12-07T14:54:18;41.42;;;30.45;;
37065;SDS011;22981;43.080;25.550;2022-12-07T14:56:48;40.28;;;28.73;;
37065;SDS011;22981;43.080;25.550;2022-12-07T14:59:16;42.80;;;28.98;;
37065;SDS011;22981;43.080;25.550;2022-12-07T15:01:46;56.98;;;37.83;;
37065;SDS011;22981;43.080;25.550;2022-12-07T15:07:15;51.42;;;34.85;;
37065;SDS011;22981;43.080;25.550;2022-12-07T15:09:48;42.03;;;31.23;;
37065;SDS011;22981;43.080;25.550;2022-12-07T15:12:16;40.28;;;29.80;;
37065;SDS011;22981;43.080;25.550;2022-12-07T15:15:03;43.00;;;31.62;;
37065;SDS011;22981;43.080;25.550;2022-12-07T15:22:48;50.67;;;33.83;;
37065;SDS011;22981;43.080;25.550;2022-12-07T16:24:48;73.33;;;56.75;;
37065;SDS011;22981;43.080;25.550;2022-12-07T18:15:37;56.18;;;41.40;;
37065;SDS011;22981;43.080;25.550;2022-12-07T18:18:09;54.25;;;39.40;;
37065;SDS011;22981;43.080;25.550;2022-12-07T18:20:40;64.50;;;44.65;;
37065;SDS011;22981;43.080;25.550;2022-12-07T18:23:13;56.27;;;43.60;;
37065;SDS011;22981;43.080;25.550;2022-12-07T18:25:50;60.55;;;42.45;;
37065;SDS011;22981;43.080;25.550;2022-12-07T18:28:18;59.83;;;42.58;;
37065;SDS011;22981;43.080;25.550;2022-12-07T18:30:59;44.38;;;29.57;;
37065;SDS011;22981;43.080;25.550;2022-12-07T18:33:27;43.58;;;30.08;;
37065;SDS011;22981;43.080;25.550;2022-12-07T18:35:55;47.35;;;35.45;;
37065;SDS011;22981;43.080;25.550;2022-12-07T18:41:01;48.83;;;34.25;;
37065;SDS011;22981;43.080;25.550;2022-12-07T18:43:32;59.98;;;39.18;;
37065;SDS011;22981;43.080;25.550;2022-12-07T18:46:03;58.28;;;42.78;;
37065;SDS011;22981;43.080;25.550;2022-12-07T18:48:36;66.47;;;47.88;;
37065;SDS011;22981;43.080;25.550;2022-12-07T18:51:05;66.02;;;51.00;;
37065;SDS011;22981;43.080;25.550;2022-12-07T18:53:36;63.60;;;41.18;;
37065;SDS011;22981;43.080;25.550;2022-12-07T18:59:05;55.28;;;38.35;;
37065;SDS011;22981;43.080;25.550;2022-12-07T19:01:52;94.30;;;65.35;;
37065;SDS011;22981;43.080;25.550;2022-12-07T19:06:51;57.17;;;40.75;;
37065;SDS011;22981;43.080;25.550;2022-12-07T19:09:20;51.50;;;36.28;;
37065;SDS011;22981;43.080;25.550;2022-12-07T19:11:49;45.08;;;31.27;;
37065;SDS011;22981;43.080;25.550;2022-12-07T19:14:21;43.33;;;27.48;;
37065;SDS011;22981;43.080;25.550;2022-12-07T19:16:54;39.18;;;27.60;;
37065;SDS011;22981;43.080;25.550;2022-12-07T19:19:29;35.30;;;22.73;;
37065;SDS011;22981;43.080;25.550;2022-12-07T19:22:20;43.63;;;29.90;;
37065;SDS011;22981;43.080;25.550;2022-12-07T19:24:50;49.42;;;31.35;;
37065;SDS011;22981;43.080;25.550;2022-12-07T19:27:19;40.58;;;30.20;;
37065;SDS011;22981;43.080;25.550;2022-12-07T19:29:48;43.42;;;30.52;;
37065;SDS011;22981;43.080;25.550;2022-12-07T19:32:37;43.33;;;26.85;;
37065;SDS011;22981;43.080;25.550;2022-12-07T19:35:08;45.75;;;29.23;;
37065;SDS011;22981;43.080;25.550;2022-12-07T19:37:36;62.03;;;44.67;;
37065;SDS011;22981;43.080;25.550;2022-12-07T19:40:21;60.48;;;41.02;;
37065;SDS011;22981;43.080;25.550;2022-12-07T19:53:15;46.48;;;30.25;;
37065;SDS011;22981;43.080;25.550;2022-12-07T19:58:22;54.15;;;32.28;;
37065;SDS011;22981;43.080;25.550;2022-12-07T20:00:53;57.95;;;33.40;;
37065;SDS011;22981;43.080;25.550;2022-12-07T20:03:25;71.82;;;39.38;;
37065;SDS011;22981;43.080;25.550;2022-12-07T21:41:14;44.00;;;24.18;;
37065;SDS011;22981;43.080;25.550;2022-12-07T21:43:47;37.98;;;22.73;;
37065;SDS011;22981;43.080;25.550;2022-12-07T21:46:23;56.55;;;26.60;;
37065;SDS011;22981;43.080;25.550;2022-12-07T21:48:57;46.55;;;27.75;;
37065;SDS011;22981;43.080;25.550;2022-12-07T21:51:27;86.95;;;26.93;;
